Time;durP1;ratioP1;P1;durP2;ratioP2;P2;SDS_P1;SDS_P2;PMS_P1;PMS_P2;Temp;Humidity;BMP_temperature;BMP_pressure;BME280_temperature;BME280_humidity;BME280_pressure;Samples;Min_cycle;Max_cycle;Signal;HPM_P1;HPM_P2
2023/12/18 00:00:29;;;;;;;22.55;5.63;;;;;;;7.34;100.00;102473.47;5046015;28;20168;-41
2023/12/18 00:02:54;;;;;;;23.58;5.43;;;;;;;7.30;100.00;102466.34;5051577;28;20199;-41
2023/12/18 00:05:19;;;;;;;21.63;5.28;;;;;;;7.32;100.00;102471.69;5050433;28;21053;-41
2023/12/18 00:07:45;;;;;;;28.23;5.32;;;;;;;7.31;100.00;102468.16;5051744;28;20167;-41
2023/12/18 00:10:10;;;;;;;17.05;5.07;;;;;;;7.37;100.00;102459.28;5051918;28;20191;-40
2023/12/18 00:12:36;;;;;;;32.30;5.80;;;;;;;7.31;100.00;102456.59;5051746;28;20207;-39
2023/12/18 00:15:02;;;;;;;19.38;5.25;;;;;;;7.38;100.00;102459.25;5051668;28;20164;-42
2023/12/18 00:17:27;;;;;;;23.65;5.93;;;;;;;7.34;100.00;102438.81;5051728;28;20199;-42
2023/12/18 00:19:53;;;;;;;25.65;5.90;;;;;;;7.32;100.00;102442.38;5033773;28;20619;-39
2023/12/18 00:22:18;;;;;;;27.67;5.32;;;;;;;7.34;100.00;102454.81;5051437;28;20271;-38
2023/12/18 00:24:44;;;;;;;24.73;5.32;;;;;;;7.34;100.00;102451.25;5051568;28;20182;-41
2023/12/18 00:27:09;;;;;;;28.92;5.68;;;;;;;7.33;100.00;102439.72;5051358;28;20180;-41
2023/12/18 00:29:35;;;;;;;27.83;5.50;;;;;;;7.32;100.00;102448.59;5051324;28;20207;-41
2023/12/18 00:32:00;;;;;;;21.15;5.60;;;;;;;7.28;100.00;102441.50;5051367;28;20203;-40
2023/12/18 00:34:26;;;;;;;17.23;5.32;;;;;;;7.28;100.00;102443.25;5051443;28;20179;-40
2023/12/18 00:36:51;;;;;;;25.42;5.30;;;;;;;7.33;100.00;102439.72;5051320;28;20691;-43
2023/12/18 00:39:17;;;;;;;23.92;5.07;;;;;;;7.21;100.00;102435.28;5051394;28;20619;-44
2023/12/18 00:41:43;;;;;;;21.23;5.72;;;;;;;7.26;100.00;102424.59;5051276;28;20254;-42
2023/12/18 00:44:08;;;;;;;21.67;5.80;;;;;;;7.26;100.00;102427.28;5051361;28;20187;-42
2023/12/18 00:46:34;;;;;;;16.45;5.35;;;;;;;7.23;100.00;102430.78;5051368;28;20182;-40
2023/12/18 00:49:00;;;;;;;22.52;6.22;;;;;;;7.26;100.00;102435.28;5051216;28;20512;-41
2023/12/18 00:51:25;;;;;;;22.98;5.20;;;;;;;7.21;100.00;102423.69;5051003;28;20199;-41
2023/12/18 00:53:50;;;;;;;26.02;5.43;;;;;;;7.26;100.00;102421.03;5050961;28;20183;-41
2023/12/18 00:56:16;;;;;;;22.13;5.68;;;;;;;7.26;100.00;102423.69;5051191;28;20641;-39
2023/12/18 00:58:41;;;;;;;18.90;5.70;;;;;;;7.27;100.00;102425.50;5050992;28;20202;-47
2023/12/18 01:01:07;;;;;;;27.17;6.07;;;;;;;7.22;100.00;102409.50;5051118;28;20171;-40
2023/12/18 01:03:32;;;;;;;20.63;5.65;;;;;;;7.21;100.00;102426.34;5033333;28;20179;-38
2023/12/18 01:05:58;;;;;;;25.58;6.22;;;;;;;7.17;100.00;102416.56;5051024;28;20209;-40
2023/12/18 01:08:23;;;;;;;22.67;6.18;;;;;;;7.15;100.00;102416.59;5050907;28;20183;-43
2023/12/18 01:10:49;;;;;;;19.70;6.03;;;;;;;7.20;100.00;102419.25;5050965;28;20203;-39
2023/12/18 01:13:14;;;;;;;23.25;5.63;;;;;;;7.16;100.00;102406.81;5051162;28;20625;-42
2023/12/18 01:15:39;;;;;;;22.63;6.10;;;;;;;7.21;100.00;102408.63;5051571;28;20680;-42
2023/12/18 01:18:05;;;;;;;19.30;5.95;;;;;;;7.15;100.00;102410.34;5054778;28;20267;-40
2023/12/18 01:20:30;;;;;;;18.75;6.30;;;;;;;7.12;100.00;102411.25;5054875;28;20649;-42
2023/12/18 01:22:56;;;;;;;19.35;5.53;;;;;;;7.08;100.00;102406.78;5054780;28;20191;-42
2023/12/18 01:25:21;;;;;;;22.63;5.72;;;;;;;7.17;100.00;102413.91;5055162;28;20263;-42
2023/12/18 01:27:47;;;;;;;20.52;6.13;;;;;;;7.06;100.00;102403.22;5055011;28;20626;-43
2023/12/18 01:30:12;;;;;;;25.05;6.18;;;;;;;7.05;100.00;102398.81;5054600;28;20203;-41
2023/12/18 01:32:38;;;;;;;16.08;5.50;;;;;;;7.07;100.00;102406.81;5054633;28;20199;-39
2023/12/18 01:35:04;;;;;;;21.67;5.47;;;;;;;7.05;100.00;102417.44;5054545;28;20193;-40
2023/12/18 01:37:30;;;;;;;21.15;5.47;;;;;;;7.08;100.00;102414.78;5054524;28;20171;-38
2023/12/18 01:39:55;;;;;;;26.50;6.60;;;;;;;7.08;100.00;102408.56;5054615;28;20168;-38
2023/12/18 01:42:20;;;;;;;26.35;6.38;;;;;;;7.07;100.00;102402.34;5054476;28;20676;-39
2023/12/18 01:44:48;;;;;;;22.35;5.93;;;;;;;7.07;100.00;102410.34;5054397;28;20167;-41
2023/12/18 01:47:15;;;;;;;19.50;5.70;;;;;;;7.07;100.00;102405.03;5054265;28;20584;-42
2023/12/18 01:49:41;;;;;;;18.95;5.47;;;;;;;7.06;100.00;102410.34;5054323;28;20221;-43
2023/12/18 01:52:07;;;;;;;22.33;5.57;;;;;;;7.09;100.00;102402.38;5054333;28;20207;-38
2023/12/18 01:54:33;;;;;;;23.40;5.70;;;;;;;7.12;100.00;102411.25;5036133;28;20221;-38
2023/12/18 01:57:01;;;;;;;18.17;6.03;;;;;;;7.07;100.00;102401.47;5053929;28;20164;-43
2023/12/18 01:59:27;;;;;;;20.92;5.97;;;;;;;7.10;100.00;102398.81;5054032;28;20228;-38
2023/12/18 02:01:53;;;;;;;17.98;5.53;;;;;;;7.10;100.00;102397.00;5053753;28;20203;-39
2023/12/18 02:04:19;;;;;;;22.05;5.82;;;;;;;7.10;100.00;102396.13;5054246;28;20171;-39
2023/12/18 02:06:45;;;;;;;21.73;5.38;;;;;;;7.11;100.00;102401.47;5053938;28;20183;-41
2023/12/18 02:09:11;;;;;;;23.00;5.82;;;;;;;7.07;100.00;102397.03;5053810;28;20657;-41
2023/12/18 02:11:37;;;;;;;22.13;6.07;;;;;;;7.06;100.00;102399.69;5053874;28;20204;-40
2023/12/18 02:14:04;;;;;;;23.58;5.43;;;;;;;7.16;100.00;102409.47;5053996;28;20179;-43
2023/12/18 02:16:29;;;;;;;19.52;5.82;;;;;;;7.08;100.00;102396.13;5053928;28;20174;-41
2023/12/18 02:18:55;;;;;;;15.20;5.45;;;;;;;7.05;100.00;102400.59;5053596;28;20183;-41
2023/12/18 02:21:21;;;;;;;21.67;5.82;;;;;;;7.08;100.00;102400.56;5053336;28;20191;-42
2023/12/18 02:23:50;;;;;;;16.95;6.05;;;;;;;7.10;100.00;102393.47;5053696;28;20237;-42
2023/12/18 02:26:17;;;;;;;16.90;6.63;;;;;;;7.09;100.00;102389.94;5053708;28;20665;-43
2023/12/18 02:28:46;;;;;;;13.15;5.95;;;;;;;7.03;100.00;102376.59;5052577;28;20175;-39
2023/12/18 02:31:13;;;;;;;19.40;5.95;;;;;;;7.04;100.00;102386.38;5053643;28;20207;-40
2023/12/18 02:33:40;;;;;;;16.23;7.10;;;;;;;7.03;100.00;102384.59;5053509;28;20210;-43
2023/12/18 02:36:06;;;;;;;13.60;6.40;;;;;;;7.00;100.00;102379.25;5053591;28;20175;-41
2023/12/18 02:38:32;;;;;;;18.42;6.88;;;;;;;7.08;100.00;102360.59;5035506;28;20309;-41
2023/12/18 02:40:57;;;;;;;17.67;6.65;;;;;;;7.07;100.00;102369.50;5053212;28;20172;-44
2023/12/18 02:43:23;;;;;;;21.52;7.72;;;;;;;7.06;100.00;102363.25;5053557;28;20224;-41
2023/12/18 02:45:48;;;;;;;19.52;7.15;;;;;;;7.09;100.00;102357.06;5053491;28;20855;-41
2023/12/18 02:48:14;;;;;;;16.67;7.00;;;;;;;7.04;100.00;102356.16;5035444;28;20623;-41
2023/12/18 02:50:39;;;;;;;15.40;6.40;;;;;;;7.09;100.00;102359.72;5053313;28;20519;-39
2023/12/18 02:53:05;;;;;;;21.63;6.43;;;;;;;7.07;100.00;102358.84;5053239;28;20273;-41
2023/12/18 02:55:30;;;;;;;19.95;7.20;;;;;;;7.07;100.00;102370.38;5053349;28;20191;-41
2023/12/18 02:57:56;;;;;;;17.90;6.68;;;;;;;7.14;100.00;102377.47;5053064;28;20210;-42
2023/12/18 03:00:21;;;;;;;16.50;6.63;;;;;;;7.06;100.00;102373.91;5053405;28;20172;-39
2023/12/18 03:02:47;;;;;;;26.27;7.85;;;;;;;7.07;100.00;102369.50;5052851;28;20253;-42
2023/12/18 03:05:13;;;;;;;19.75;6.93;;;;;;;7.12;100.00;102381.03;5053010;28;20180;-41
2023/12/18 03:07:39;;;;;;;23.70;8.05;;;;;;;7.05;100.00;102387.25;5053178;28;20644;-42
2023/12/18 03:10:05;;;;;;;25.50;9.00;;;;;;;7.06;100.00;102383.69;5052940;28;20191;-40
2023/12/18 03:12:30;;;;;;;21.05;7.55;;;;;;;7.05;100.00;102385.47;5052877;28;20265;-41
2023/12/18 03:14:56;;;;;;;23.35;8.05;;;;;;;7.06;100.00;102359.72;5052799;28;20187;-41
2023/12/18 03:17:21;;;;;;;17.80;6.85;;;;;;;7.06;100.00;102375.69;5052468;28;20175;-42
2023/12/18 03:19:47;;;;;;;24.17;8.05;;;;;;;7.08;100.00;102374.81;5053086;28;20178;-42
2023/12/18 03:22:13;;;;;;;21.75;6.95;;;;;;;7.08;100.00;102364.16;5052642;28;20199;-43
2023/12/18 03:24:42;;;;;;;21.10;8.05;;;;;;;7.12;100.00;102368.59;5035318;28;20186;-39
2023/12/18 03:27:09;;;;;;;16.48;6.97;;;;;;;7.10;100.00;102374.81;5052583;28;20176;-42
2023/12/18 03:29:34;;;;;;;20.58;7.50;;;;;;;7.08;100.00;102371.25;5052403;28;20273;-42
2023/12/18 03:32:00;;;;;;;19.38;7.03;;;;;;;7.09;100.00;102365.06;5052490;28;20213;-41
2023/12/18 03:34:26;;;;;;;19.50;7.63;;;;;;;7.05;100.00;102357.94;5052862;28;20221;-38
2023/12/18 03:36:51;;;;;;;19.92;7.68;;;;;;;7.05;100.00;102374.81;5052308;28;20179;-42
2023/12/18 03:39:17;;;;;;;22.05;6.88;;;;;;;7.07;100.00;102375.72;5052054;28;20183;-38
2023/12/18 03:41:43;;;;;;;18.20;7.13;;;;;;;7.10;100.00;102364.16;5050929;28;20202;-42
2023/12/18 03:44:08;;;;;;;17.48;6.63;;;;;;;7.10;100.00;102374.81;5052549;28;20167;-41
2023/12/18 03:46:34;;;;;;;18.88;6.75;;;;;;;7.14;100.00;102376.59;5052394;28;20179;-39
2023/12/18 03:48:59;;;;;;;13.25;7.38;;;;;;;7.08;100.00;102389.91;5051957;28;20521;-39
2023/12/18 03:51:25;;;;;;;18.77;6.95;;;;;;;7.08;100.00;102381.91;5051950;28;20233;-39
2023/12/18 03:53:50;;;;;;;25.58;6.93;;;;;;;7.06;100.00;102383.69;5051928;28;20195;-44
2023/12/18 03:56:16;;;;;;;20.67;7.75;;;;;;;7.04;100.00;102401.44;5051878;28;20168;-40
2023/12/18 03:58:41;;;;;;;22.50;8.60;;;;;;;7.05;100.00;102376.59;5051949;28;20159;-43
2023/12/18 04:01:07;;;;;;;13.63;6.90;;;;;;;7.13;100.00;102398.81;5052000;28;20177;-42
2023/12/18 04:03:32;;;;;;;16.08;7.63;;;;;;;7.10;100.00;102405.00;5052050;28;20286;-40
2023/12/18 04:05:57;;;;;;;20.27;7.55;;;;;;;7.10;100.00;102396.13;5051729;28;20168;-42
2023/12/18 04:08:23;;;;;;;21.20;8.82;;;;;;;7.03;100.00;102408.56;5051393;28;20183;-42
2023/12/18 04:10:48;;;;;;;21.30;8.63;;;;;;;7.03;100.00;102411.22;5033833;28;20183;-41
2023/12/18 04:13:14;;;;;;;18.73;8.35;;;;;;;7.09;100.00;102413.03;5051493;28;20188;-40
2023/12/18 04:15:40;;;;;;;19.80;8.85;;;;;;;7.01;100.00;102413.00;5051653;28;20183;-41
2023/12/18 04:18:08;;;;;;;19.73;9.25;;;;;;;7.03;100.00;102423.66;5051433;28;20187;-39
2023/12/18 04:20:33;;;;;;;27.63;10.27;;;;;;;7.05;100.00;102424.56;5033327;28;20609;-41
2023/12/18 04:22:59;;;;;;;20.85;9.00;;;;;;;6.98;100.00;102416.56;5051345;28;20238;-37
2023/12/18 04:25:24;;;;;;;31.58;9.85;;;;;;;6.97;100.00;102425.41;5051475;28;20175;-41
2023/12/18 04:27:50;;;;;;;25.63;9.98;;;;;;;7.05;100.00;102411.25;5051032;28;20164;-40
2023/12/18 04:30:15;;;;;;;30.55;9.38;;;;;;;6.99;100.00;102420.97;5051334;28;20183;-41
2023/12/18 04:32:41;;;;;;;17.98;8.65;;;;;;;7.06;100.00;102413.00;5051153;28;20214;-44
2023/12/18 04:35:07;;;;;;;23.27;10.23;;;;;;;7.00;100.00;102411.25;5051644;28;20262;-42
2023/12/18 04:37:33;;;;;;;18.85;8.93;;;;;;;7.01;100.00;102419.22;5051173;28;20171;-38
2023/12/18 04:39:59;;;;;;;22.67;9.32;;;;;;;7.03;100.00;102410.34;5033243;28;20194;-41
2023/12/18 04:42:25;;;;;;;21.38;8.18;;;;;;;6.99;100.00;102415.66;5051143;28;20280;-40
2023/12/18 04:44:50;;;;;;;18.45;8.93;;;;;;;7.04;100.00;102414.78;5051168;28;20186;-41
2023/12/18 04:47:16;;;;;;;20.92;7.95;;;;;;;7.03;100.00;102411.22;5051065;28;20217;-41
2023/12/18 04:49:41;;;;;;;21.92;8.00;;;;;;;7.00;100.00;102406.78;5051078;28;20194;-42
2023/12/18 04:52:07;;;;;;;16.35;8.07;;;;;;;6.98;100.00;102413.88;5050280;28;20215;-40
2023/12/18 04:54:32;;;;;;;16.00;7.97;;;;;;;6.95;100.00;102411.22;5051249;28;20174;-41
2023/12/18 04:56:58;;;;;;;24.40;7.82;;;;;;;6.96;100.00;102404.13;5051202;28;20173;-39
2023/12/18 04:59:23;;;;;;;23.42;8.18;;;;;;;7.03;100.00;102411.22;5051219;28;20216;-42
2023/12/18 05:01:49;;;;;;;21.80;8.73;;;;;;;7.01;100.00;102410.34;5051103;28;20203;-41
2023/12/18 05:04:14;;;;;;;19.13;8.38;;;;;;;6.97;100.00;102412.09;5051137;28;20167;-41
2023/12/18 05:06:41;;;;;;;17.35;8.98;;;;;;;7.01;100.00;102410.34;5051379;28;20621;-43
2023/12/18 05:09:06;;;;;;;18.38;9.00;;;;;;;7.04;100.00;102415.69;5048842;22;20266;-42
2023/12/18 05:11:32;;;;;;;19.75;9.18;;;;;;;7.05;100.00;102419.25;5029805;28;20208;-40
2023/12/18 05:13:58;;;;;;;23.23;10.13;;;;;;;7.01;100.00;102426.31;5031087;28;20190;-42
2023/12/18 05:16:23;;;;;;;22.85;9.55;;;;;;;6.95;100.00;102413.91;5031217;28;20191;-40
2023/12/18 05:18:49;;;;;;;20.85;9.23;;;;;;;6.95;100.00;102408.56;5029895;28;20724;-40
2023/12/18 05:21:14;;;;;;;19.55;9.35;;;;;;;6.94;100.00;102412.09;5026489;28;20311;-41
2023/12/18 05:23:40;;;;;;;15.88;9.02;;;;;;;6.93;100.00;102420.09;5030893;28;20705;-41
2023/12/18 05:26:05;;;;;;;28.77;9.88;;;;;;;6.94;100.00;102425.41;5029674;28;20249;-40
2023/12/18 05:28:31;;;;;;;19.02;9.88;;;;;;;6.95;100.00;102427.22;5030736;28;20196;-42
2023/12/18 05:30:56;;;;;;;17.33;10.25;;;;;;;6.93;100.00;102425.41;5024679;28;20223;-42
2023/12/18 05:33:22;;;;;;;20.65;9.18;;;;;;;6.93;100.00;102441.41;5030796;28;20192;-42
2023/12/18 05:35:48;;;;;;;19.15;9.75;;;;;;;6.91;100.00;102425.44;5012400;28;20184;-41
2023/12/18 05:38:13;;;;;;;19.90;9.85;;;;;;;6.90;100.00;102428.97;5030743;28;20572;-42
2023/12/18 05:40:38;;;;;;;22.92;9.90;;;;;;;6.91;100.00;102429.84;5029720;28;20241;-40
2023/12/18 05:43:05;;;;;;;17.67;10.25;;;;;;;6.89;100.00;102445.84;5024122;28;20208;-44
2023/12/18 05:45:31;;;;;;;18.90;9.20;;;;;;;6.89;100.00;102424.53;5015678;28;20211;-41
2023/12/18 05:47:58;;;;;;;21.60;10.05;;;;;;;6.89;100.00;102429.88;5025300;28;20208;-42
2023/12/18 05:50:23;;;;;;;19.90;9.10;;;;;;;6.91;100.00;102437.84;5027899;28;20196;-42
2023/12/18 05:52:48;;;;;;;20.58;9.50;;;;;;;6.92;100.00;102437.84;5030567;28;20585;-42
2023/12/18 05:55:14;;;;;;;19.77;10.50;;;;;;;6.92;100.00;102439.63;5026135;28;20655;-42
2023/12/18 05:57:41;;;;;;;18.17;9.40;;;;;;;6.95;100.00;102440.53;5014770;28;20197;-43
2023/12/18 06:00:07;;;;;;;18.00;9.75;;;;;;;6.94;100.00;102436.09;5029707;28;20194;-42
2023/12/18 06:02:33;;;;;;;16.45;9.05;;;;;;;6.93;100.00;102442.31;5027811;28;20203;-40
2023/12/18 06:04:59;;;;;;;17.15;9.52;;;;;;;6.92;100.00;102439.63;5033592;28;20244;-42
2023/12/18 06:07:25;;;;;;;19.02;8.98;;;;;;;7.04;100.00;102452.09;5031780;28;20200;-41
2023/12/18 06:09:50;;;;;;;19.52;9.43;;;;;;;6.97;100.00;102448.50;5033880;28;20591;-41
2023/12/18 06:12:15;;;;;;;16.58;9.50;;;;;;;6.98;100.00;102444.97;5033897;28;20212;-41
2023/12/18 06:14:41;;;;;;;17.98;9.20;;;;;;;7.00;100.00;102441.44;5034126;28;20188;-41
2023/12/18 06:17:06;;;;;;;19.42;9.63;;;;;;;6.96;100.00;102442.31;5012080;28;20246;-42
2023/12/18 06:19:34;;;;;;;20.75;9.40;;;;;;;6.94;100.00;102445.84;5033624;28;20176;-42
2023/12/18 06:22:01;;;;;;;15.98;9.40;;;;;;;6.97;100.00;102449.41;5014483;28;20222;-40
2023/12/18 06:24:26;;;;;;;22.45;9.10;;;;;;;6.94;100.00;102460.06;5032015;28;20184;-42
2023/12/18 06:26:53;;;;;;;23.55;10.05;;;;;;;6.96;100.00;102462.75;5032659;28;20602;-41
2023/12/18 06:29:19;;;;;;;17.52;9.68;;;;;;;6.98;100.00;102472.50;5032050;28;20684;-42
2023/12/18 06:31:44;;;;;;;22.85;10.70;;;;;;;6.97;100.00;102473.38;5030924;28;20204;-42
2023/12/18 06:34:11;;;;;;;23.63;10.25;;;;;;;7.02;100.00;102465.44;5033944;28;20222;-40
2023/12/18 06:36:37;;;;;;;28.95;10.60;;;;;;;6.98;100.00;102476.97;5034261;28;20195;-40
2023/12/18 06:39:03;;;;;;;17.33;10.20;;;;;;;6.95;100.00;102480.50;5029320;28;20216;-42
2023/12/18 06:41:28;;;;;;;21.95;10.02;;;;;;;7.05;100.00;102484.09;5033775;28;20653;-40
2023/12/18 06:43:54;;;;;;;17.13;10.52;;;;;;;6.96;100.00;102474.28;5019827;28;20279;-43
2023/12/18 06:46:20;;;;;;;19.10;10.48;;;;;;;6.96;100.00;102492.06;5031271;28;20287;-40
2023/12/18 06:48:46;;;;;;;17.45;10.73;;;;;;;7.00;100.00;102480.53;5026216;28;20628;-42
2023/12/18 06:51:11;;;;;;;16.48;11.18;;;;;;;6.95;100.00;102487.59;5030478;28;20200;-43
2023/12/18 06:53:37;;;;;;;25.45;10.13;;;;;;;6.98;100.00;102495.63;5033802;28;20188;-41
2023/12/18 06:56:03;;;;;;;18.48;10.63;;;;;;;6.95;100.00;102484.94;5033608;28;20219;-42
2023/12/18 06:58:29;;;;;;;18.95;11.20;;;;;;;6.92;100.00;102485.81;5031020;28;20177;-41
2023/12/18 07:00:54;;;;;;;18.67;10.73;;;;;;;6.94;100.00;102491.16;4999335;28;20261;-41
2023/12/18 07:03:20;;;;;;;19.25;10.93;;;;;;;6.93;100.00;102495.59;5027851;28;20279;-41
2023/12/18 07:05:46;;;;;;;24.60;10.60;;;;;;;6.93;100.00;102489.34;5028289;28;20265;-41
2023/12/18 07:08:12;;;;;;;15.20;10.35;;;;;;;6.93;100.00;102484.03;5010127;28;20198;-41
2023/12/18 07:10:37;;;;;;;14.30;10.80;;;;;;;6.93;100.00;102489.34;5033179;28;20211;-42
2023/12/18 07:13:03;;;;;;;19.85;10.80;;;;;;;6.95;100.00;102488.50;5032918;28;20206;-41
2023/12/18 07:15:28;;;;;;;15.52;10.25;;;;;;;6.89;100.00;102475.16;5026341;28;20192;-41
2023/12/18 07:17:54;;;;;;;15.95;11.20;;;;;;;6.92;100.00;102471.59;5027731;28;20188;-40
2023/12/18 07:20:20;;;;;;;15.93;9.90;;;;;;;6.90;100.00;102470.72;5033359;28;20196;-41
2023/12/18 07:22:45;;;;;;;17.63;10.32;;;;;;;6.97;100.00;102473.38;5032661;28;20277;-43
2023/12/18 07:25:11;;;;;;;16.35;9.85;;;;;;;6.94;100.00;102470.72;5032845;28;20311;-41
2023/12/18 07:27:36;;;;;;;15.95;8.45;;;;;;;6.92;100.00;102472.50;5032780;28;20538;-40
2023/12/18 07:30:03;;;;;;;14.43;9.13;;;;;;;6.97;100.00;102475.16;5030296;28;20207;-40
2023/12/18 07:32:30;;;;;;;17.58;9.20;;;;;;;6.94;100.00;102475.16;5019130;28;20231;-40
2023/12/18 07:34:59;;;;;;;19.05;8.35;;;;;;;7.04;100.00;102482.31;5030018;28;20198;-42
2023/12/18 07:37:27;;;;;;;14.23;8.57;;;;;;;6.94;100.00;102469.84;5020149;28;20554;-43
2023/12/18 07:39:52;;;;;;;15.00;7.95;;;;;;;6.95;100.00;102467.19;5031577;28;20198;-42
2023/12/18 07:42:18;;;;;;;10.18;7.72;;;;;;;6.92;100.00;102472.50;5031320;28;20192;-42
2023/12/18 07:44:43;;;;;;;15.98;8.95;;;;;;;6.94;100.00;102460.06;5031282;28;20188;-43
2023/12/18 07:47:09;;;;;;;10.95;8.35;;;;;;;6.94;100.00;102460.06;5031377;28;20219;-41
2023/12/18 07:49:35;;;;;;;11.68;8.30;;;;;;;6.99;100.00;102471.63;5031029;28;20222;-42
2023/12/18 07:52:01;;;;;;;15.35;7.80;;;;;;;6.99;100.00;102463.63;5031797;28;20212;-42
2023/12/18 07:54:27;;;;;;;13.88;7.25;;;;;;;6.95;100.00;102468.94;5031642;28;20195;-41
2023/12/18 07:56:52;;;;;;;13.18;7.57;;;;;;;6.97;100.00;102449.41;5014026;28;20662;-43
2023/12/18 07:59:19;;;;;;;11.82;7.05;;;;;;;6.99;100.00;102463.63;5028736;28;20272;-43
2023/12/18 08:01:45;;;;;;;12.18;6.40;;;;;;;7.00;100.00;102460.09;5031431;28;20693;-40
2023/12/18 08:04:11;;;;;;;9.10;5.90;;;;;;;7.01;100.00;102482.28;5031842;28;20211;-43
2023/12/18 08:06:37;;;;;;;17.73;5.97;;;;;;;6.99;100.00;102463.63;5028768;28;20184;-43
2023/12/18 08:09:03;;;;;;;7.65;5.10;;;;;;;6.99;100.00;102452.97;5029352;28;20196;-43
2023/12/18 08:11:28;;;;;;;9.50;5.20;;;;;;;7.00;100.00;102459.19;5030975;28;20713;-43
2023/12/18 08:13:54;;;;;;;8.05;5.10;;;;;;;7.01;100.00;102443.19;5031432;28;20202;-42
2023/12/18 08:16:19;;;;;;;9.15;5.25;;;;;;;7.04;100.00;102454.75;5028521;28;20556;-43
2023/12/18 08:18:46;;;;;;;8.88;5.60;;;;;;;7.01;100.00;102448.53;5031377;28;20196;-44
2023/12/18 08:21:13;;;;;;;13.35;5.63;;;;;;;7.01;100.00;102435.19;5029243;28;20186;-42
2023/12/18 08:23:40;;;;;;;8.00;5.85;;;;;;;7.04;100.00;102434.34;5027802;28;20192;-42
2023/12/18 08:26:05;;;;;;;8.20;5.43;;;;;;;7.04;100.00;102434.34;5029841;28;20291;-42
2023/12/18 08:28:31;;;;;;;10.23;5.90;;;;;;;7.06;100.00;102434.31;5023723;28;20323;-43
2023/12/18 08:30:56;;;;;;;8.43;5.35;;;;;;;7.03;100.00;102437.00;5031445;28;20205;-42
2023/12/18 08:33:22;;;;;;;12.27;5.68;;;;;;;7.09;100.00;102437.00;4995086;28;20713;-44
2023/12/18 08:35:47;;;;;;;7.07;5.47;;;;;;;7.09;100.00;102434.34;5031081;28;20701;-41
2023/12/18 08:38:13;;;;;;;9.57;5.63;;;;;;;7.08;100.00;102443.22;5030735;28;20200;-42
2023/12/18 08:40:39;;;;;;;10.18;5.68;;;;;;;7.11;100.00;102438.78;5030490;28;20184;-41
2023/12/18 08:43:05;;;;;;;12.10;5.75;;;;;;;7.12;100.00;102432.56;5031144;28;20700;-43
2023/12/18 08:45:30;;;;;;;10.05;5.85;;;;;;;7.10;100.00;102436.13;5029767;28;20273;-42
2023/12/18 08:47:59;;;;;;;8.63;5.97;;;;;;;7.13;100.00;102434.34;5027820;28;20199;-42
2023/12/18 08:50:26;;;;;;;10.15;5.63;;;;;;;7.16;100.00;102433.47;5026842;28;20211;-41
2023/12/18 08:52:52;;;;;;;11.75;6.25;;;;;;;7.18;100.00;102424.59;5031171;28;20706;-42
2023/12/18 08:55:19;;;;;;;14.70;6.82;;;;;;;7.22;100.00;102421.03;5023249;28;20232;-42
2023/12/18 08:57:45;;;;;;;13.35;6.60;;;;;;;7.17;100.00;102424.56;5031196;28;20543;-41
2023/12/18 09:00:12;;;;;;;11.80;6.95;;;;;;;7.21;100.00;102426.34;5031200;28;20192;-41
2023/12/18 09:02:38;;;;;;;11.82;6.82;;;;;;;7.21;100.00;102434.34;5030830;28;20207;-41
2023/12/18 09:05:03;;;;;;;15.35;7.45;;;;;;;7.18;100.00;102426.38;5031030;28;20277;-41
2023/12/18 09:07:29;;;;;;;14.80;7.13;;;;;;;7.23;100.00;102449.47;5031258;28;20188;-42
2023/12/18 09:09:54;;;;;;;19.35;8.30;;;;;;;7.27;100.00;102453.03;5027811;28;20205;-41
2023/12/18 09:12:20;;;;;;;13.73;7.35;;;;;;;7.23;100.00;102453.91;5030960;28;20212;-42
2023/12/18 09:14:45;;;;;;;17.75;7.40;;;;;;;7.22;100.00;102444.16;5030814;28;20175;-43
2023/12/18 09:17:11;;;;;;;12.00;6.70;;;;;;;7.23;100.00;102449.47;5009648;28;20271;-41
2023/12/18 09:19:36;;;;;;;12.90;7.03;;;;;;;7.26;100.00;102459.25;5017241;28;20180;-41
2023/12/18 09:22:02;;;;;;;13.13;7.95;;;;;;;7.22;100.00;102445.03;5025383;28;20251;-42
2023/12/18 09:24:28;;;;;;;11.55;7.28;;;;;;;7.26;100.00;102455.69;5030745;28;20659;-44
2023/12/18 09:26:54;;;;;;;11.95;6.80;;;;;;;7.21;100.00;102440.59;5030898;28;20596;-42
2023/12/18 09:29:20;;;;;;;12.13;6.90;;;;;;;7.27;100.00;102449.47;5027956;28;20214;-42
2023/12/18 09:31:46;;;;;;;16.67;7.60;;;;;;;7.25;100.00;102438.81;5014972;28;20532;-42
2023/12/18 09:34:12;;;;;;;13.65;6.85;;;;;;;7.26;100.00;102445.94;5030915;28;20271;-43
2023/12/18 09:36:37;;;;;;;15.85;7.18;;;;;;;7.29;100.00;102443.25;5030833;28;20279;-43
2023/12/18 09:39:03;;;;;;;16.35;7.38;;;;;;;7.32;100.00;102447.69;5032422;28;20198;-41
2023/12/18 09:41:28;;;;;;;11.73;6.32;;;;;;;7.32;100.00;102451.25;5034148;28;20246;-44
2023/12/18 09:43:54;;;;;;;12.10;6.65;;;;;;;7.29;100.00;102439.72;5033108;28;20676;-42
2023/12/18 09:46:22;;;;;;;14.05;7.03;;;;;;;7.36;100.00;102442.38;5021851;28;20211;-43
2023/12/18 09:48:49;;;;;;;11.13;6.97;;;;;;;7.38;100.00;102445.03;5033570;28;20257;-42
2023/12/18 09:51:19;;;;;;;12.43;6.30;;;;;;;7.33;100.00;102441.50;5032179;28;20196;-40
2023/12/18 09:53:46;;;;;;;9.40;6.15;;;;;;;7.32;100.00;102439.69;5030671;28;20193;-43
2023/12/18 09:56:12;;;;;;;14.77;7.47;;;;;;;7.31;100.00;102435.28;5029870;28;20230;-40
2023/12/18 09:58:40;;;;;;;11.38;6.47;;;;;;;7.34;100.00;102443.25;5034478;28;20180;-42
2023/12/18 10:01:07;;;;;;;12.95;6.53;;;;;;;7.29;100.00;102437.03;5034665;28;20172;-43
2023/12/18 10:03:33;;;;;;;11.75;6.68;;;;;;;7.32;100.00;102437.03;5034234;28;20176;-41
2023/12/18 10:05:59;;;;;;;12.88;7.13;;;;;;;7.34;100.00;102438.81;5034164;28;20188;-41
2023/12/18 10:08:24;;;;;;;14.68;6.80;;;;;;;7.29;100.00;102434.38;5029951;28;20192;-42
2023/12/18 10:10:50;;;;;;;11.40;6.72;;;;;;;7.35;100.00;102429.06;5030800;28;20199;-40
2023/12/18 10:13:16;;;;;;;9.85;7.18;;;;;;;7.33;100.00;102418.38;5033765;28;20559;-42
2023/12/18 10:15:44;;;;;;;12.93;7.30;;;;;;;7.37;100.00;102422.84;5033697;28;20192;-42
2023/12/18 10:18:10;;;;;;;12.25;7.95;;;;;;;7.34;100.00;102422.81;5019763;28;20183;-43
2023/12/18 10:20:36;;;;;;;14.35;7.63;;;;;;;7.37;100.00;102417.50;5031778;28;20693;-41
2023/12/18 10:23:04;;;;;;;12.88;7.38;;;;;;;7.34;100.00;102417.47;5033634;28;20366;-43
2023/12/18 10:25:31;;;;;;;9.93;6.90;;;;;;;7.40;100.00;102409.50;5029667;28;20639;-41
2023/12/18 10:27:57;;;;;;;12.70;7.25;;;;;;;7.40;100.00;102411.28;5015603;28;20337;-41
2023/12/18 10:30:28;;;;;;;15.45;7.93;;;;;;;7.36;100.00;102398.81;5033712;28;20666;-42
2023/12/18 10:32:54;;;;;;;9.38;6.63;;;;;;;7.39;100.00;102412.16;5027044;28;20204;-41
2023/12/18 10:35:21;;;;;;;10.07;7.18;;;;;;;7.36;100.00;102397.03;5022938;28;20178;-42
2023/12/18 10:37:54;;;;;;;9.23;6.70;;;;;;;7.40;100.00;102406.81;5033326;28;20176;-43
2023/12/18 10:40:22;;;;;;;9.63;6.55;;;;;;;7.41;100.00;102397.03;5025864;28;20234;-42
2023/12/18 10:43:13;;;;;;;10.10;6.90;;;;;;;7.42;100.00;102394.38;5031309;28;20203;-42
2023/12/18 10:45:39;;;;;;;9.23;6.75;;;;;;;7.49;100.00;102399.72;5032077;28;20242;-42
2023/12/18 10:48:07;;;;;;;13.32;7.60;;;;;;;7.45;100.00;102387.28;5033310;28;20291;-41
2023/12/18 10:50:34;;;;;;;13.55;8.18;;;;;;;7.43;100.00;102393.50;5032387;28;20192;-43
2023/12/18 10:53:01;;;;;;;11.48;7.70;;;;;;;7.48;100.00;102384.59;5033382;28;20214;-40
2023/12/18 10:55:27;;;;;;;12.07;8.38;;;;;;;7.53;100.00;102367.72;5033876;28;20635;-40
2023/12/18 10:57:56;;;;;;;14.82;8.65;;;;;;;7.46;100.00;102371.28;5033519;28;20195;-40
2023/12/18 11:00:22;;;;;;;15.10;8.80;;;;;;;7.45;100.00;102368.59;5034170;28;20614;-41
2023/12/18 11:02:49;;;;;;;16.27;9.00;;;;;;;7.48;100.00;102369.50;5032962;28;20293;-42
2023/12/18 11:05:15;;;;;;;12.93;8.05;;;;;;;7.53;100.00;102350.81;5006158;28;20218;-40
2023/12/18 11:07:42;;;;;;;14.38;8.40;;;;;;;7.52;100.00;102343.69;5054330;22;20208;-40
2023/12/18 11:10:08;;;;;;;12.73;8.82;;;;;;;7.55;100.00;102357.06;5003925;28;20220;-44